Gibsonton, Florida
Current Conditions -  °F | °C
As of 6:11 PM on Sunday 21 Dec 2014 (Local Time) from KMCF Reporting Station
Light Rain Light Rain  
Wind Chill: 68°   Ceiling: 2800
Heat Index: 68°   Visibility: 10mi
Dew Point: 66°   Wind: 6mph
Humidity: 94%   Direction: 360°N
Pressure: 30.03"   Gusts: NA
Location:  27.85°N, 82.38°W
Report Text: KMCF 212311Z AUTO 36005KT 10SM -RA OVC028 20/19 A3003 RMK AO2 RAB2312 OVC V BKN $
Loading
Personal Weather Stations






























Interactive Weather Map New forecast layout! Learn more

10-Day Weather Forecast

Advertisements
Track Severe Weather on mobile